Time;durP1;ratioP1;P1;durP2;ratioP2;P2;SDS_P1;SDS_P2;PMS_P1;PMS_P2;Temp;Humidity;BMP_temperature;BMP_pressure;BME280_temperature;BME280_humidity;BME280_pressure;Samples;Min_cycle;Max_cycle;Signal;HPM_P1;HPM_P2
2022/12/05 00:03:59;;;;;;;30.20;14.10;;;;;;;1.13;100.00;99007.20;214119;1310;23782;-75
2022/12/05 00:09:02;;;;;;;31.80;14.40;;;;;;;1.11;100.00;99002.61;214364;1304;22530;-74
2022/12/05 00:14:07;;;;;;;33.50;14.70;;;;;;;1.10;100.00;99002.69;214027;1310;25227;-74
2022/12/05 00:19:12;;;;;;;31.90;14.10;;;;;;;1.10;100.00;98992.67;214019;1310;25205;-75
2022/12/05 00:24:15;;;;;;;36.80;14.70;;;;;;;1.11;100.00;98986.41;214019;1310;25227;-74
2022/12/05 00:29:17;;;;;;;30.30;13.60;;;;;;;1.12;100.00;98990.14;213927;1310;22487;-75
2022/12/05 00:34:21;;;;;;;31.60;14.40;;;;;;;1.09;100.00;98981.52;213964;1309;22488;-75
2022/12/05 00:39:23;;;;;;;30.30;13.20;;;;;;;1.08;100.00;98976.83;214119;1306;22487;-75
2022/12/05 00:44:25;;;;;;;28.40;12.40;;;;;;;1.04;100.00;98977.93;214092;1310;22582;-74
2022/12/05 00:49:27;;;;;;;30.20;12.10;;;;;;;1.01;100.00;98983.72;214084;1310;25236;-74
2022/12/05 00:54:29;;;;;;;28.80;13.30;;;;;;;1.01;100.00;98984.54;213961;1310;23810;-75
2022/12/05 00:59:31;;;;;;;27.50;13.20;;;;;;;0.98;100.00;98974.62;214213;1310;25284;-75
2022/12/05 01:04:33;;;;;;;27.30;12.00;;;;;;;0.98;100.00;98974.29;214201;1300;22477;-74
2022/12/05 01:09:35;;;;;;;26.50;12.40;;;;;;;1.01;100.00;98978.48;213976;1310;22729;-73
2022/12/05 01:14:37;;;;;;;25.10;10.60;;;;;;;0.98;100.00;98975.52;214109;1298;22568;-75
2022/12/05 01:19:39;;;;;;;26.50;11.20;;;;;;;0.98;100.00;98969.80;214069;1310;25344;-75
2022/12/05 01:24:40;;;;;;;32.10;13.10;;;;;;;1.00;100.00;98976.39;214180;1297;22539;-74
2022/12/05 01:29:42;;;;;;;26.90;13.20;;;;;;;1.03;100.00;98982.77;214212;1310;23797;-75
2022/12/05 01:34:44;;;;;;;26.70;11.70;;;;;;;1.07;100.00;98977.32;214120;1310;22467;-74
2022/12/05 01:39:47;;;;;;;27.70;12.50;;;;;;;1.04;100.00;98970.90;214084;1310;22472;-74
2022/12/05 01:44:49;;;;;;;24.50;11.50;;;;;;;1.00;100.00;98962.79;214109;1310;22488;-74
2022/12/05 01:49:51;;;;;;;34.30;12.50;;;;;;;0.99;100.00;98970.80;214168;1310;24120;-73
2022/12/05 01:54:58;;;;;;;30.40;12.80;;;;;;;0.99;100.00;98986.55;214021;1310;22478;-74
2022/12/05 02:00:08;;;;;;;29.00;13.30;;;;;;;1.06;100.00;98996.41;214111;1310;23754;-74
2022/12/05 02:05:19;;;;;;;29.80;13.20;;;;;;;1.07;100.00;99003.71;214051;1310;24257;-74
2022/12/05 02:10:22;;;;;;;29.80;12.30;;;;;;;1.06;100.00;99004.98;213957;1310;22469;-74
2022/12/05 02:15:46;;;;;;;27.80;12.80;;;;;;;1.06;100.00;98994.91;214045;1310;22484;-74
2022/12/05 02:21:32;;;;;;;31.40;13.70;;;;;;;1.08;100.00;98993.86;213998;1310;22454;-74
2022/12/05 02:26:53;;;;;;;29.30;13.10;;;;;;;1.16;100.00;98988.98;214242;1305;24312;-75
2022/12/05 02:32:20;;;;;;;31.70;14.50;;;;;;;1.13;100.00;98980.55;214285;1310;22514;-75
2022/12/05 02:37:29;;;;;;;25.30;11.00;;;;;;;1.08;100.00;98999.00;214117;1310;25468;-74
2022/12/05 02:42:59;;;;;;;32.00;13.70;;;;;;;1.07;100.00;99001.97;214125;1310;24275;-74
2022/12/05 02:48:02;;;;;;;28.20;12.70;;;;;;;1.06;100.00;98989.18;214302;1310;22603;-75
2022/12/05 02:53:10;;;;;;;27.60;12.10;;;;;;;1.05;100.00;98981.29;214317;1310;25278;-75
2022/12/05 02:58:20;;;;;;;29.20;11.90;;;;;;;1.08;100.00;98982.67;213994;1309;24997;-74
2022/12/05 03:03:23;;;;;;;27.30;11.70;;;;;;;1.07;100.00;98983.41;214314;1310;23994;-75
2022/12/05 03:08:31;;;;;;;36.50;14.10;;;;;;;1.04;100.00;98983.73;214016;1310;22524;-73
2022/12/05 03:13:51;;;;;;;26.80;12.30;;;;;;;1.00;100.00;98980.20;214286;1295;22463;-74
2022/12/05 03:18:58;;;;;;;27.50;12.80;;;;;;;1.00;100.00;98972.97;214041;1310;22471;-75
2022/12/05 03:24:05;;;;;;;25.60;12.00;;;;;;;1.01;100.00;98962.86;214213;1295;22462;-74
2022/12/05 03:29:41;;;;;;;28.60;13.10;;;;;;;1.03;100.00;98957.11;214131;1310;22471;-74
2022/12/05 03:35:10;;;;;;;29.00;12.80;;;;;;;0.99;100.00;98946.20;214178;1310;22484;-75
2022/12/05 03:40:51;;;;;;;29.20;11.70;;;;;;;0.99;100.00;98929.48;214175;1310;25261;-74
2022/12/05 03:46:05;;;;;;;21.30;10.90;;;;;;;1.03;100.00;98931.79;213973;1310;22885;-74
2022/12/05 03:51:12;;;;;;;25.00;11.40;;;;;;;1.05;100.00;98938.77;214209;1310;22940;-75
2022/12/05 03:56:20;;;;;;;24.30;11.80;;;;;;;1.03;100.00;98937.02;214025;1310;25571;-76
2022/12/05 04:01:24;;;;;;;24.70;12.10;;;;;;;1.03;100.00;98937.39;214161;1310;22482;-74
2022/12/05 04:06:35;;;;;;;20.80;9.40;;;;;;;1.05;100.00;98935.21;214053;1310;22462;-75
2022/12/05 04:11:43;;;;;;;24.90;9.80;;;;;;;1.07;100.00;98933.58;214078;1310;22467;-74
2022/12/05 04:17:02;;;;;;;25.50;11.40;;;;;;;1.07;100.00;98940.22;214057;1310;22485;-75
2022/12/05 04:22:04;;;;;;;21.60;10.50;;;;;;;1.09;100.00;98963.17;214263;1310;22506;-74
2022/12/05 04:27:24;;;;;;;28.10;11.50;;;;;;;1.11;100.00;98970.01;214145;1310;22469;-74
2022/12/05 04:32:29;;;;;;;27.40;12.40;;;;;;;1.15;100.00;98970.57;214095;1310;23282;-74
2022/12/05 04:37:36;;;;;;;24.70;11.40;;;;;;;1.19;100.00;98950.22;214127;1310;24300;-74
2022/12/05 04:42:41;;;;;;;28.40;13.20;;;;;;;1.21;100.00;98946.20;214178;1310;24300;-74
2022/12/05 04:47:49;;;;;;;25.00;11.00;;;;;;;1.20;100.00;98947.77;213967;1310;22454;-74
2022/12/05 04:52:54;;;;;;;23.40;11.50;;;;;;;1.18;100.00;98946.82;214076;1308;24295;-74
2022/12/05 04:58:06;;;;;;;30.10;13.90;;;;;;;1.16;100.00;98943.88;214073;1310;22473;-75
2022/12/05 05:03:43;;;;;;;26.40;12.50;;;;;;;1.17;100.00;98941.35;214204;1310;22576;-75
2022/12/05 05:08:51;;;;;;;24.10;11.70;;;;;;;1.12;100.00;98937.94;214163;1310;24260;-74
2022/12/05 05:13:53;;;;;;;27.30;12.30;;;;;;;1.05;100.00;98938.66;214088;1310;22728;-75
2022/12/05 05:18:55;;;;;;;28.40;12.80;;;;;;;1.01;100.00;98936.69;214077;1310;23076;-75
2022/12/05 05:23:58;;;;;;;29.10;13.10;;;;;;;1.00;100.00;98934.41;214057;1310;24311;-74
2022/12/05 05:29:01;;;;;;;30.40;12.60;;;;;;;0.98;100.00;98922.67;214149;1297;22489;-74
2022/12/05 05:34:03;;;;;;;28.80;13.10;;;;;;;0.94;100.00;98916.60;213917;1310;22474;-75
2022/12/05 05:39:14;;;;;;;28.30;12.20;;;;;;;0.89;100.00;98916.09;214038;1310;22647;-74
2022/12/05 05:44:16;;;;;;;29.70;12.90;;;;;;;0.82;100.00;98909.31;214212;1310;27360;-74
2022/12/05 05:49:18;;;;;;;28.90;12.90;;;;;;;0.82;100.00;98901.73;214178;1310;23742;-75
2022/12/05 05:54:19;;;;;;;31.90;14.10;;;;;;;0.83;100.00;98901.80;214116;1295;22491;-76
2022/12/05 05:59:22;;;;;;;32.40;14.50;;;;;;;0.82;100.00;98906.37;214179;1310;25308;-75
2022/12/05 06:04:23;;;;;;;37.20;15.70;;;;;;;0.81;100.00;98918.54;214258;1306;23795;-74
2022/12/05 06:09:25;;;;;;;34.10;15.50;;;;;;;0.83;100.00;98916.90;214082;1310;25345;-76
2022/12/05 06:14:27;;;;;;;33.20;14.90;;;;;;;0.89;100.00;98911.98;214270;1310;22547;-75
2022/12/05 06:19:29;;;;;;;34.90;14.80;;;;;;;0.91;100.00;98908.60;214223;1310;23764;-75
2022/12/05 06:24:31;;;;;;;33.50;14.80;;;;;;;0.90;100.00;98907.76;214128;1310;22554;-75
2022/12/05 06:29:34;;;;;;;35.50;15.90;;;;;;;0.92;100.00;98912.85;214165;1312;22469;-74
2022/12/05 06:34:36;;;;;;;36.70;15.00;;;;;;;0.92;100.00;98915.23;214174;1310;23001;-74
2022/12/05 06:39:38;;;;;;;35.60;15.70;;;;;;;0.96;100.00;98920.15;214512;1288;23131;-74
2022/12/05 06:44:40;;;;;;;38.90;15.50;;;;;;;1.02;100.00;98925.06;214408;1284;23279;-74
2022/12/05 06:49:42;;;;;;;35.30;15.00;;;;;;;1.03;100.00;98926.19;214662;1286;22546;-72
2022/12/05 06:54:45;;;;;;;38.90;16.00;;;;;;;1.07;100.00;98924.96;214723;1286;22484;-75
2022/12/05 06:59:47;;;;;;;39.50;16.30;;;;;;;1.09;100.00;98930.26;214626;1286;22633;-74
2022/12/05 07:04:49;;;;;;;36.00;16.20;;;;;;;1.15;100.00;98934.23;214904;1281;25211;-74
2022/12/05 07:09:52;;;;;;;40.40;17.50;;;;;;;1.20;100.00;98938.14;215296;1280;138439;-75
2022/12/05 07:14:54;;;;;;;40.90;17.70;;;;;;;1.26;100.00;98944.59;214914;1281;138951;-76
2022/12/05 07:19:56;;;;;;;39.50;17.90;;;;;;;1.34;100.00;98940.86;214852;1281;139341;-74
2022/12/05 07:24:58;;;;;;;35.80;14.60;;;;;;;1.45;100.00;98934.48;214610;1284;139346;-77
2022/12/05 07:30:00;;;;;;;47.80;19.10;;;;;;;1.54;100.00;98929.54;214622;1283;23343;-75
2022/12/05 07:35:03;;;;;;;44.80;18.80;;;;;;;1.60;100.00;98936.12;214752;1286;139194;-74
2022/12/05 07:40:05;;;;;;;43.30;19.10;;;;;;;1.68;100.00;98936.68;214575;1284;138731;-74
2022/12/05 07:45:08;;;;;;;44.40;18.90;;;;;;;1.77;100.00;98946.59;214521;1281;138927;-73
2022/12/05 07:50:10;;;;;;;41.50;19.80;;;;;;;1.88;100.00;98950.73;215552;1284;138931;-74
2022/12/05 07:55:12;;;;;;;46.50;20.10;;;;;;;2.07;100.00;98952.44;214683;1286;139178;-73
2022/12/05 08:00:14;;;;;;;41.10;18.70;;;;;;;2.22;100.00;98946.28;214740;1281;22480;-74
2022/12/05 08:05:16;;;;;;;49.70;21.30;;;;;;;2.32;100.00;98947.10;214605;1281;138556;-74
2022/12/05 08:10:18;;;;;;;41.00;19.30;;;;;;;2.43;100.00;98954.95;215213;1284;138753;-75
2022/12/05 08:15:20;;;;;;;43.10;20.60;;;;;;;2.51;100.00;98953.02;214812;1285;139016;-73
2022/12/05 08:20:22;;;;;;;37.30;17.90;;;;;;;2.57;100.00;98954.52;214584;1284;139010;-72
2022/12/05 08:25:24;;;;;;;40.90;19.10;;;;;;;2.60;100.00;98956.91;214547;1287;138903;-74
2022/12/05 08:30:26;;;;;;;37.80;18.10;;;;;;;2.64;100.00;98963.61;214644;1288;138922;-75
2022/12/05 08:35:28;;;;;;;38.30;19.30;;;;;;;2.71;100.00;98961.86;214738;1281;23941;-75
2022/12/05 08:40:30;;;;;;;39.00;19.70;;;;;;;2.74;100.00;98960.55;214497;1295;138554;-74
2022/12/05 08:45:32;;;;;;;31.80;15.30;;;;;;;2.86;100.00;98970.84;214605;1284;139104;-74
2022/12/05 08:50:33;;;;;;;30.50;15.00;;;;;;;3.08;100.00;98970.56;214704;1285;139034;-74
2022/12/05 08:55:36;;;;;;;34.00;17.80;;;;;;;3.31;100.00;98958.34;215050;1295;138962;-74
2022/12/05 09:00:39;;;;;;;34.10;16.80;;;;;;;3.49;100.00;98957.50;215286;1284;139234;-75
2022/12/05 09:05:41;;;;;;;40.30;20.30;;;;;;;3.70;100.00;98970.91;215284;1286;22949;-73
2022/12/05 09:10:43;;;;;;;37.70;19.80;;;;;;;3.93;99.99;98966.58;215684;1292;139273;-73
2022/12/05 09:15:45;;;;;;;31.30;16.00;;;;;;;4.02;99.69;98967.33;214694;1289;138742;-72
2022/12/05 09:20:46;;;;;;;33.90;17.30;;;;;;;4.04;99.44;98963.42;214555;1281;138672;-72
2022/12/05 09:25:55;;;;;;;39.20;18.30;;;;;;;4.06;99.13;98962.98;214547;1288;138791;-73
2022/12/05 09:31:00;;;;;;;37.60;18.10;;;;;;;4.03;98.79;98966.27;214569;1284;139316;-73
2022/12/05 09:36:07;;;;;;;36.20;17.80;;;;;;;3.97;98.59;98962.84;214540;1285;22528;-74
2022/12/05 09:41:12;;;;;;;33.90;15.20;;;;;;;3.97;98.61;98961.20;214568;1280;138542;-73
2022/12/05 09:46:53;;;;;;;31.80;16.20;;;;;;;4.04;98.71;98949.00;214632;1284;139086;-74
2022/12/05 09:51:57;;;;;;;34.40;16.30;;;;;;;4.17;98.66;98946.03;214769;1281;138707;-73
2022/12/05 09:57:00;;;;;;;33.00;18.00;;;;;;;4.27;98.41;98945.17;214882;1287;139128;-73
2022/12/05 10:02:14;;;;;;;36.60;19.50;;;;;;;4.33;98.07;98942.91;214583;1288;138774;-73
2022/12/05 10:07:29;;;;;;;36.10;17.60;;;;;;;4.34;98.24;98935.34;214752;1284;138800;-74
2022/12/05 10:12:58;;;;;;;35.90;18.10;;;;;;;4.34;97.85;98938.84;214991;1288;138826;-73
2022/12/05 10:18:23;;;;;;;44.90;21.70;;;;;;;4.36;98.10;98927.58;214618;1291;22150;-73
2022/12/05 10:23:31;;;;;;;44.60;21.00;;;;;;;4.37;97.90;98926.21;214587;1284;22523;-74
2022/12/05 10:29:03;;;;;;;35.90;19.40;;;;;;;4.34;97.84;98932.54;214533;1289;138411;-73
2022/12/05 10:34:16;;;;;;;43.50;20.40;;;;;;;4.36;97.70;98937.48;214422;1281;138787;-72
2022/12/05 10:39:18;;;;;;;34.90;17.80;;;;;;;4.36;97.74;98948.00;214662;1288;139375;-73
2022/12/05 10:44:20;;;;;;;37.70;18.80;;;;;;;4.38;97.64;98943.48;214502;1281;139225;-71
2022/12/05 10:49:23;;;;;;;33.50;16.70;;;;;;;4.38;97.52;98945.02;214280;1296;139281;-72
2022/12/05 10:54:29;;;;;;;39.90;18.50;;;;;;;4.38;97.36;98943.20;214370;1287;139605;-72
2022/12/05 10:59:45;;;;;;;37.20;19.80;;;;;;;4.29;97.30;98937.99;214766;1284;22582;-73
2022/12/05 11:04:48;;;;;;;33.80;17.40;;;;;;;4.22;97.14;98930.63;215079;1289;138579;-74
2022/12/05 11:09:50;;;;;;;38.80;19.00;;;;;;;4.14;97.19;98928.38;214784;1288;138677;-73
2022/12/05 11:14:58;;;;;;;34.80;17.80;;;;;;;4.09;97.39;98926.82;214863;1287;139099;-73
2022/12/05 11:20:01;;;;;;;38.40;19.40;;;;;;;4.11;97.79;98921.13;214621;1296;138751;-73
2022/12/05 11:25:27;;;;;;;40.30;18.10;;;;;;;4.14;97.70;98924.30;214680;1294;138872;-73
2022/12/05 11:30:29;;;;;;;48.90;22.10;;;;;;;4.18;97.67;98922.60;214649;1299;25353;-73
2022/12/05 11:35:31;;;;;;;37.80;19.60;;;;;;;4.20;97.38;98924.58;214444;1285;138326;-72
2022/12/05 11:40:48;;;;;;;43.40;22.50;;;;;;;4.19;97.58;98923.14;214563;1284;138461;-73
2022/12/05 11:46:06;;;;;;;52.70;25.70;;;;;;;4.16;97.67;98923.95;214529;1296;138701;-72
2022/12/05 11:51:35;;;;;;;52.20;26.40;;;;;;;4.16;97.81;98920.56;214575;1289;138858;-72
2022/12/05 11:56:42;;;;;;;50.70;26.10;;;;;;;4.21;97.88;98925.13;214636;1301;138630;-73
2022/12/05 12:01:47;;;;;;;45.60;22.60;;;;;;;4.18;97.52;98923.55;214659;1287;138662;-73
2022/12/05 12:07:23;;;;;;;42.90;22.20;;;;;;;4.22;97.88;98922.87;215310;1284;138716;-73
2022/12/05 12:12:53;;;;;;;52.10;26.20;;;;;;;4.26;97.80;98907.50;214576;1284;22484;-73
2022/12/05 12:18:23;;;;;;;47.80;24.40;;;;;;;4.30;97.77;98906.39;214594;1288;25013;-73
2022/12/05 12:23:36;;;;;;;56.70;28.90;;;;;;;4.34;97.73;98897.15;214579;1292;138376;-71
2022/12/05 12:28:45;;;;;;;56.30;29.50;;;;;;;4.38;97.77;98897.58;214592;1284;138578;-73
2022/12/05 12:34:03;;;;;;;51.70;28.10;;;;;;;4.42;97.79;98895.62;214657;1284;139108;-73
2022/12/05 12:39:39;;;;;;;50.30;28.80;;;;;;;4.49;98.00;98890.35;214579;1284;138782;-72
2022/12/05 12:45:04;;;;;;;57.60;32.10;;;;;;;4.53;97.45;98884.19;214534;1287;138809;-73
2022/12/05 12:50:15;;;;;;;45.40;26.00;;;;;;;4.56;97.66;98886.04;214585;1288;138695;-72
2022/12/05 12:55:19;;;;;;;56.40;30.10;;;;;;;4.58;97.70;98885.91;214730;1292;138892;-71
2022/12/05 13:00:47;;;;;;;53.00;29.20;;;;;;;4.58;97.84;98886.30;214695;1284;22463;-73
2022/12/05 13:06:28;;;;;;;56.20;29.90;;;;;;;4.59;97.36;98891.13;215527;1284;23134;-73
2022/12/05 13:11:37;;;;;;;55.20;30.00;;;;;;;4.56;97.49;98888.92;214457;1282;138544;-73
2022/12/05 13:16:43;;;;;;;58.90;31.10;;;;;;;4.59;97.73;98885.23;214327;1287;138695;-73
2022/12/05 13:21:47;;;;;;;62.60;33.20;;;;;;;4.62;97.72;98889.04;214752;1284;139150;-76
2022/12/05 13:26:49;;;;;;;52.50;27.40;;;;;;;4.68;98.12;98885.52;214895;1284;138764;-73
2022/12/05 13:31:51;;;;;;;67.60;35.10;;;;;;;4.73;98.06;98893.36;214612;1288;138737;-73
2022/12/05 13:42:36;;;;;;;66.80;35.10;;;;;;;4.83;98.03;98891.53;214680;1292;22541;-72
2022/12/05 13:47:58;;;;;;;70.00;37.30;;;;;;;4.91;98.04;98889.02;214697;1310;138287;-72
2022/12/05 13:53:06;;;;;;;73.10;36.20;;;;;;;4.99;98.34;98890.05;214559;1292;138797;-72
2022/12/05 13:58:17;;;;;;;76.00;38.10;;;;;;;5.06;98.42;98895.08;214550;1287;138538;-73
2022/12/05 14:03:31;;;;;;;72.90;37.40;;;;;;;5.15;98.13;98905.79;215072;1285;138676;-73
2022/12/05 14:08:51;;;;;;;75.60;36.60;;;;;;;5.19;98.16;98908.55;214821;1289;139643;-74
2022/12/05 14:13:53;;;;;;;74.60;38.50;;;;;;;5.20;98.03;98907.18;214378;1284;138748;-74
2022/12/05 14:19:15;;;;;;;73.00;36.60;;;;;;;5.19;97.67;98913.48;214128;1289;138711;-73
2022/12/05 14:24:42;;;;;;;74.60;39.20;;;;;;;5.17;97.59;98913.67;214291;1294;25342;-75
2022/12/05 14:29:53;;;;;;;72.30;36.30;;;;;;;5.13;97.53;98916.34;214968;1294;22579;-73
2022/12/05 14:35:01;;;;;;;72.40;37.40;;;;;;;5.09;97.35;98918.16;214157;1287;138485;-71
2022/12/05 14:40:31;;;;;;;75.10;36.50;;;;;;;5.07;97.23;98922.55;214590;1283;138619;-71
2022/12/05 14:45:39;;;;;;;68.70;35.30;;;;;;;5.07;97.57;98921.59;214471;1284;138806;-72
2022/12/05 14:50:46;;;;;;;71.50;37.20;;;;;;;5.06;97.44;98915.64;214748;1281;138722;-71
2022/12/05 14:55:54;;;;;;;75.40;36.30;;;;;;;5.07;97.70;98910.80;214511;1285;138713;-72
2022/12/05 15:00:59;;;;;;;81.40;39.10;;;;;;;5.07;97.73;98906.78;214586;1295;23072;-75
2022/12/05 15:06:05;;;;;;;81.80;38.20;;;;;;;5.10;97.70;98911.91;214203;1301;24251;-72
2022/12/05 15:11:26;;;;;;;80.60;39.00;;;;;;;5.12;97.70;98908.04;213831;1310;23482;-73
2022/12/05 15:16:30;;;;;;;94.80;41.30;;;;;;;5.12;97.71;98901.83;214135;1310;22537;-73
2022/12/05 15:21:40;;;;;;;86.20;43.80;;;;;;;5.10;97.65;98901.60;214106;1310;24388;-73
2022/12/05 15:26:55;;;;;;;93.60;42.40;;;;;;;5.08;97.71;98899.61;214085;1310;22473;-73
2022/12/05 15:32:01;;;;;;;83.90;38.40;;;;;;;5.06;97.37;98895.77;214147;1310;22530;-72
2022/12/05 15:37:14;;;;;;;84.30;40.80;;;;;;;5.02;97.39;98895.93;214299;1310;22935;-73
2022/12/05 15:42:16;;;;;;;86.80;42.00;;;;;;;5.01;97.44;98891.77;214124;1310;22498;-73
2022/12/05 15:47:23;;;;;;;80.50;40.10;;;;;;;4.92;97.37;98888.88;214277;1310;22539;-73
2022/12/05 15:52:41;;;;;;;78.40;37.50;;;;;;;4.87;97.42;98881.44;214348;1310;22519;-73
2022/12/05 15:57:49;;;;;;;80.20;39.40;;;;;;;4.85;97.68;98883.05;214093;1310;22568;-73
2022/12/05 16:02:57;;;;;;;81.00;39.50;;;;;;;4.84;97.76;98886.58;214125;1310;25363;-73
2022/12/05 16:08:04;;;;;;;76.90;39.10;;;;;;;4.80;97.74;98888.04;214024;1310;24323;-73
2022/12/05 16:13:13;;;;;;;75.00;40.90;;;;;;;4.78;97.54;98891.95;214251;1310;22676;-73
2022/12/05 16:18:28;;;;;;;92.20;44.40;;;;;;;4.76;97.42;98892.14;214030;1310;24204;-74
2022/12/05 16:23:36;;;;;;;97.90;45.00;;;;;;;4.78;97.72;98891.31;214378;1310;22726;-74
2022/12/05 16:28:38;;;;;;;148.40;66.10;;;;;;;4.80;97.85;98894.63;214191;1310;25300;-73
2022/12/05 16:33:40;;;;;;;151.30;65.90;;;;;;;4.83;97.96;98889.55;214129;1310;23890;-74
2022/12/05 16:38:45;;;;;;;151.80;70.00;;;;;;;4.82;97.97;98891.19;214074;1310;24310;-73
2022/12/05 16:43:48;;;;;;;135.00;64.00;;;;;;;4.82;98.13;98893.53;214041;1310;24313;-73
2022/12/05 16:49:19;;;;;;;141.50;65.60;;;;;;;4.84;98.12;98895.47;213953;1307;22957;-72
2022/12/05 16:54:21;;;;;;;152.90;71.00;;;;;;;4.87;98.05;98891.42;214107;1310;24363;-73
2022/12/05 16:59:30;;;;;;;138.70;64.60;;;;;;;4.90;98.04;98895.54;214134;1310;22481;-73
2022/12/05 17:04:32;;;;;;;137.60;64.80;;;;;;;4.91;98.16;98897.48;214235;1310;23751;-75
2022/12/05 17:09:34;;;;;;;127.70;59.10;;;;;;;4.91;97.78;98899.97;214083;1310;22462;-73
2022/12/05 17:14:35;;;;;;;104.40;48.80;;;;;;;4.85;97.75;98897.08;214172;1310;22755;-73
2022/12/05 17:19:37;;;;;;;126.90;55.50;;;;;;;4.81;97.84;98899.84;214125;1310;25328;-73
2022/12/05 17:24:39;;;;;;;114.70;49.80;;;;;;;4.81;97.92;98900.95;214088;1310;24396;-72
2022/12/05 17:29:40;;;;;;;109.00;48.60;;;;;;;4.80;97.97;98899.45;214167;1310;24077;-73
2022/12/05 17:34:42;;;;;;;110.90;50.30;;;;;;;4.81;98.00;98903.06;214059;1305;22611;-72
2022/12/05 17:39:44;;;;;;;110.70;50.90;;;;;;;4.75;97.54;98909.27;214150;1310;22485;-73
2022/12/05 17:44:46;;;;;;;113.10;50.60;;;;;;;4.68;97.58;98910.70;214226;1307;22497;-71
2022/12/05 17:49:48;;;;;;;122.40;55.30;;;;;;;4.63;97.30;98907.73;214048;1310;22526;-73
2022/12/05 17:54:50;;;;;;;131.40;60.70;;;;;;;4.58;97.65;98910.75;214165;1309;24278;-72
2022/12/05 17:59:51;;;;;;;129.40;61.80;;;;;;;4.53;97.62;98908.60;213983;1310;25236;-74
2022/12/05 18:04:53;;;;;;;135.40;63.40;;;;;;;4.48;97.50;98910.23;214016;1310;25373;-72
2022/12/05 18:09:55;;;;;;;131.90;62.50;;;;;;;4.44;97.59;98908.88;214153;1310;22477;-73
2022/12/05 18:14:57;;;;;;;130.80;60.90;;;;;;;4.41;98.04;98911.00;214222;1310;22544;-73
2022/12/05 18:19:59;;;;;;;126.70;57.60;;;;;;;4.40;97.92;98906.79;214140;1310;24266;-73
2022/12/05 18:25:02;;;;;;;126.90;57.60;;;;;;;4.36;97.99;98909.92;214188;1310;25360;-73
2022/12/05 18:30:05;;;;;;;123.00;55.50;;;;;;;4.33;98.11;98903.56;214021;1310;24600;-73
2022/12/05 18:35:08;;;;;;;114.00;50.70;;;;;;;4.32;97.89;98900.31;214467;1310;22464;-72
2022/12/05 18:40:13;;;;;;;116.70;53.60;;;;;;;4.33;98.17;98895.34;214101;1310;22475;-73
2022/12/05 18:45:15;;;;;;;104.50;47.90;;;;;;;4.34;98.39;98894.71;214242;1310;25324;-73
2022/12/05 18:50:17;;;;;;;114.20;53.70;;;;;;;4.37;98.66;98894.86;214133;1310;25214;-73
2022/12/05 18:55:19;;;;;;;104.30;49.30;;;;;;;4.42;98.83;98894.40;213949;1310;22527;-73
2022/12/05 19:00:38;;;;;;;100.00;46.90;;;;;;;4.40;98.31;98899.58;214031;1311;25275;-73
2022/12/05 19:05:42;;;;;;;104.00;47.70;;;;;;;4.34;98.18;98894.20;214108;1310;22466;-73
2022/12/05 19:10:43;;;;;;;122.90;52.70;;;;;;;4.34;98.42;98883.80;214000;1310;22629;-73
2022/12/05 19:15:45;;;;;;;107.10;49.10;;;;;;;4.39;98.73;98880.89;214298;1310;25306;-73
2022/12/05 19:20:49;;;;;;;102.30;46.30;;;;;;;4.43;98.77;98880.83;214068;1310;25230;-72
2022/12/05 19:25:58;;;;;;;96.70;45.80;;;;;;;4.44;98.89;98880.21;214438;1310;25379;-73
2022/12/05 19:31:05;;;;;;;97.50;46.60;;;;;;;4.42;98.51;98887.91;214017;1310;25283;-73
2022/12/05 19:36:11;;;;;;;104.70;46.60;;;;;;;4.36;98.23;98891.47;214118;1310;24440;-73
2022/12/05 19:41:15;;;;;;;110.10;51.50;;;;;;;4.34;98.46;98890.33;214055;1310;22514;-73
2022/12/05 19:46:19;;;;;;;117.00;55.00;;;;;;;4.34;98.90;98892.21;214090;1310;22489;-73
2022/12/05 19:51:22;;;;;;;118.30;54.50;;;;;;;4.39;99.21;98884.98;213934;1310;22504;-73
2022/12/05 19:56:25;;;;;;;165.30;77.80;;;;;;;4.46;99.31;98882.30;213875;1308;24640;-73
2022/12/05 20:01:30;;;;;;;117.60;55.80;;;;;;;4.51;99.52;98880.94;214336;1307;22548;-72
2022/12/05 20:06:38;;;;;;;113.70;51.00;;;;;;;4.55;99.50;98881.31;214182;1310;24352;-73
2022/12/05 20:11:42;;;;;;;111.50;51.80;;;;;;;4.54;99.37;98883.36;213969;1306;22514;-73
2022/12/05 20:16:44;;;;;;;106.10;49.50;;;;;;;4.51;99.39;98883.48;214073;1310;22558;-74
2022/12/05 20:21:46;;;;;;;107.30;47.50;;;;;;;4.45;98.96;98880.02;214036;1310;22506;-73
2022/12/05 20:26:48;;;;;;;95.80;48.70;;;;;;;4.38;99.15;98884.70;214092;1310;25262;-74
2022/12/05 20:31:52;;;;;;;107.70;50.80;;;;;;;4.32;98.98;98880.52;214160;1310;27505;-73
2022/12/05 20:36:55;;;;;;;111.10;52.20;;;;;;;4.25;99.32;98878.11;214255;1310;24127;-73
2022/12/05 20:41:56;;;;;;;133.60;59.70;;;;;;;4.24;99.74;98877.56;213950;1306;22525;-72
2022/12/05 20:46:58;;;;;;;162.40;74.80;;;;;;;4.30;99.95;98877.10;213975;1304;22461;-73
2022/12/05 20:52:00;;;;;;;152.30;72.30;;;;;;;4.36;100.00;98876.13;213965;1310;22501;-73
2022/12/05 20:57:02;;;;;;;143.30;66.70;;;;;;;4.39;100.00;98878.61;214267;1310;22522;-73
2022/12/05 21:02:04;;;;;;;130.80;59.70;;;;;;;4.41;100.00;98876.14;214061;1310;22521;-73
2022/12/05 21:07:06;;;;;;;120.70;53.00;;;;;;;4.44;100.00;98873.20;214116;1310;22466;-73
2022/12/05 21:12:08;;;;;;;132.20;57.30;;;;;;;4.45;100.00;98871.91;214124;1298;22603;-74
2022/12/05 21:17:12;;;;;;;135.30;59.40;;;;;;;4.46;100.00;98875.62;214055;1310;25247;-74
2022/12/05 21:22:14;;;;;;;130.70;58.70;;;;;;;4.45;100.00;98871.05;214235;1310;22476;-73
2022/12/05 21:27:16;;;;;;;127.60;54.00;;;;;;;4.46;100.00;98866.13;214063;1310;23161;-73
2022/12/05 21:32:18;;;;;;;136.50;60.70;;;;;;;4.46;100.00;98858.59;214196;1310;22666;-73
2022/12/05 21:37:20;;;;;;;122.60;54.60;;;;;;;4.45;100.00;98860.49;214193;1305;22514;-73
2022/12/05 21:42:21;;;;;;;130.90;58.70;;;;;;;4.43;100.00;98854.20;214056;1295;24310;-74
2022/12/05 21:47:23;;;;;;;129.30;59.80;;;;;;;4.43;100.00;98850.91;214145;1310;25265;-73
2022/12/05 21:52:25;;;;;;;125.20;58.20;;;;;;;4.44;100.00;98845.46;213983;1310;22493;-73
2022/12/05 21:57:30;;;;;;;134.50;58.40;;;;;;;4.45;100.00;98844.58;214135;1310;22496;-74
2022/12/05 22:02:32;;;;;;;122.40;55.80;;;;;;;4.45;100.00;98846.77;214132;1310;22473;-74
2022/12/05 22:07:34;;;;;;;138.00;59.40;;;;;;;4.43;100.00;98846.02;214112;1310;25404;-74
2022/12/05 22:12:45;;;;;;;128.90;59.40;;;;;;;4.44;100.00;98849.50;214126;1310;22479;-74
2022/12/05 22:17:47;;;;;;;134.00;56.80;;;;;;;4.48;100.00;98845.61;214049;1310;22681;-74
2022/12/05 22:22:49;;;;;;;133.20;59.10;;;;;;;4.50;100.00;98838.64;214056;1310;24265;-74
2022/12/05 22:27:54;;;;;;;133.40;63.10;;;;;;;4.50;100.00;98834.29;213979;1310;25217;-74
2022/12/05 22:32:56;;;;;;;147.50;65.10;;;;;;;4.51;100.00;98830.17;214269;1310;22538;-73
2022/12/05 22:37:58;;;;;;;144.90;62.70;;;;;;;4.53;100.00;98824.52;213869;1305;174965;-74
2022/12/05 22:42:59;;;;;;;147.10;63.10;;;;;;;4.55;100.00;98831.64;214101;1310;22485;-73
2022/12/05 22:48:07;;;;;;;146.60;65.50;;;;;;;4.58;100.00;98825.57;214221;1310;22467;-74
2022/12/05 22:53:09;;;;;;;148.90;65.30;;;;;;;4.59;100.00;98823.73;214072;1310;25331;-74
2022/12/05 22:58:11;;;;;;;142.20;62.00;;;;;;;4.61;100.00;98811.13;213922;1307;23786;-74
2022/12/05 23:03:14;;;;;;;145.20;62.60;;;;;;;4.62;100.00;98799.77;214010;1311;24412;-74
2022/12/05 23:08:16;;;;;;;146.50;66.20;;;;;;;4.61;100.00;98795.84;214083;1310;22510;-73
2022/12/05 23:13:18;;;;;;;128.70;58.90;;;;;;;4.61;100.00;98799.56;214101;1310;22478;-74
2022/12/05 23:18:20;;;;;;;149.10;66.20;;;;;;;4.59;100.00;98797.41;213866;1310;22473;-74
2022/12/05 23:23:22;;;;;;;141.50;63.50;;;;;;;4.57;100.00;98782.00;214221;1310;22530;-73